createdAt,value
2023-04-03T00:00:14.199Z,590.4
2023-04-03T00:01:15.983Z,590.1
2023-04-03T00:02:18.153Z,590.2
2023-04-03T00:03:20.445Z,590.2
2023-04-03T00:04:22.702Z,590.3
2023-04-03T00:05:24.689Z,590.5
2023-04-03T00:06:26.524Z,590.4
2023-04-03T00:07:28.381Z,590.7
2023-04-03T00:08:30.228Z,590.6
2023-04-03T00:09:32.099Z,591.1
2023-04-03T00:10:34.039Z,590.9
2023-04-03T00:11:35.992Z,591.3
2023-04-03T00:12:37.850Z,591.5
2023-04-03T00:13:39.796Z,591.2
2023-04-03T00:14:41.640Z,591.5
2023-04-03T00:15:43.492Z,591.5
2023-04-03T00:16:45.452Z,591.9
2023-04-03T00:17:47.471Z,592.1
2023-04-03T00:18:49.552Z,591.8
2023-04-03T00:19:51.393Z,591.9
2023-04-03T00:20:53.248Z,592.1
2023-04-03T00:21:55.205Z,592.3
2023-04-03T00:22:57.164Z,591.9
2023-04-03T00:23:59.005Z,592.3
2023-04-03T00:25:00.965Z,592.1
2023-04-03T00:26:02.912Z,592.3
2023-04-03T00:27:04.761Z,592.4
2023-04-03T00:28:06.604Z,592
2023-04-03T00:29:08.559Z,592.2
2023-04-03T00:30:10.413Z,592.1
2023-04-03T00:31:12.502Z,591.9
2023-04-03T00:32:14.332Z,592.2
2023-04-03T00:33:16.363Z,591.9
2023-04-03T00:34:18.214Z,592
2023-04-03T00:35:20.077Z,592.3
2023-04-03T00:36:22.384Z,591.8
2023-04-03T00:37:24.285Z,591.9
2023-04-03T00:38:26.813Z,591.9
2023-04-03T00:39:28.799Z,591.9
2023-04-03T00:40:30.675Z,591.5
2023-04-03T00:41:32.501Z,591.6
2023-04-03T00:42:34.360Z,591.8
2023-04-03T00:43:38.494Z,591.9
2023-04-03T00:44:40.421Z,591.9
2023-04-03T00:45:42.257Z,591.9
2023-04-03T00:46:44.437Z,591.7
2023-04-03T00:47:46.540Z,591.8
2023-04-03T00:48:48.468Z,591.9
2023-04-03T00:49:50.285Z,591.9
2023-04-03T00:50:52.026Z,591.9
2023-04-03T00:51:53.885Z,591.9
2023-04-03T00:52:55.717Z,592.2
2023-04-03T00:53:57.685Z,592.3
2023-04-03T00:54:59.513Z,592.1
2023-04-03T00:56:01.512Z,592.5
2023-04-03T00:57:03.454Z,592.2
2023-04-03T00:58:05.370Z,591.7
2023-04-03T00:59:07.222Z,591.9
2023-04-03T01:00:09.070Z,591.6
2023-04-03T01:01:10.930Z,591.9
2023-04-03T01:02:12.737Z,591.8
2023-04-03T01:03:14.527Z,592.3
2023-04-03T01:04:16.714Z,591.8
2023-04-03T01:05:18.536Z,592
2023-04-03T01:06:20.487Z,591.8
2023-04-03T01:07:22.343Z,591.7
2023-04-03T01:08:24.195Z,591.7
2023-04-03T01:09:25.975Z,591.7
2023-04-03T01:10:27.785Z,591.6
2023-04-03T01:11:29.765Z,591.7
2023-04-03T01:12:31.684Z,591.5
2023-04-03T01:13:33.644Z,591.4
2023-04-03T01:14:35.485Z,591.5
2023-04-03T01:15:37.339Z,591.5
2023-04-03T01:16:39.184Z,591.4
2023-04-03T01:17:41.205Z,591.6
2023-04-03T01:18:43.194Z,591.4
2023-04-03T01:19:45.007Z,591.6
2023-04-03T01:20:46.909Z,591.4
2023-04-03T01:21:48.682Z,591.5
2023-04-03T01:22:50.493Z,591.7
2023-04-03T01:23:52.350Z,591.5
2023-04-03T01:24:54.205Z,591.8
2023-04-03T01:25:56.046Z,591.6
2023-04-03T01:26:58.018Z,591.4
2023-04-03T01:27:59.853Z,591.8
2023-04-03T01:29:01.805Z,591.8
2023-04-03T01:30:03.753Z,591.7
2023-04-03T01:31:05.820Z,591.5
2023-04-03T01:32:07.654Z,591.2
2023-04-03T01:33:09.715Z,591.2
2023-04-03T01:34:11.504Z,591.2
2023-04-03T01:35:13.415Z,591.3
2023-04-03T01:36:15.512Z,591.8
2023-04-03T01:37:17.140Z,591.3
2023-04-03T01:38:18.964Z,591.4
2023-04-03T01:39:20.807Z,591.3
2023-04-03T01:40:22.768Z,591.2
2023-04-03T01:41:24.622Z,591.4
2023-04-03T01:42:26.484Z,591.2
2023-04-03T01:43:28.412Z,591.4
2023-04-03T01:44:30.272Z,591.4
2023-04-03T01:45:32.356Z,590.9
2023-04-03T01:46:34.279Z,591.1
2023-04-03T01:47:36.344Z,590.9
2023-04-03T01:48:38.277Z,590.8
2023-04-03T01:49:40.136Z,590.7
2023-04-03T01:50:41.984Z,590.8
2023-04-03T01:51:43.834Z,590.5
2023-04-03T01:52:45.685Z,590.3
2023-04-03T01:53:47.479Z,590
2023-04-03T01:54:49.276Z,589.9
2023-04-03T01:55:51.125Z,589.7
2023-04-03T01:56:53.104Z,590.1
2023-04-03T01:57:54.917Z,590.2
2023-04-03T01:58:56.889Z,590.2
2023-04-03T01:59:58.761Z,590.2
2023-04-03T02:01:00.736Z,589.9
2023-04-03T02:02:02.767Z,590.6
2023-04-03T02:03:04.934Z,590.5
2023-04-03T02:04:06.840Z,590.8
2023-04-03T02:05:08.701Z,590.9
2023-04-03T02:06:13.319Z,591.2
2023-04-03T02:07:15.188Z,591.2
2023-04-03T02:08:17.013Z,590.8
2023-04-03T02:09:18.856Z,591.2
2023-04-03T02:10:20.582Z,590.9
2023-04-03T02:11:22.568Z,590.7
2023-04-03T02:12:24.412Z,590.6
2023-04-03T02:13:26.286Z,590.5
2023-04-03T02:14:28.016Z,590.6
2023-04-03T02:15:29.972Z,590.5
2023-04-03T02:16:32.236Z,590.3
2023-04-03T02:17:34.108Z,590.2
2023-04-03T02:18:35.926Z,590.4
2023-04-03T02:19:37.868Z,590.3
2023-04-03T02:20:40.547Z,590.5
2023-04-03T02:21:42.493Z,590.6
2023-04-03T02:22:44.252Z,590.2
2023-04-03T02:23:46.096Z,590.2
2023-04-03T02:24:47.949Z,590.6
2023-04-03T02:25:49.890Z,591
2023-04-03T02:26:51.947Z,590.8
2023-04-03T02:27:53.803Z,591.1
2023-04-03T02:28:55.883Z,591.3
2023-04-03T02:29:57.703Z,591.5
2023-04-03T02:30:59.671Z,591.4
2023-04-03T02:32:01.506Z,591.5
2023-04-03T02:33:03.574Z,591.7
2023-04-03T02:34:05.417Z,591.7
2023-04-03T02:35:07.258Z,591.5
2023-04-03T02:36:09.212Z,591.5
2023-04-03T02:37:11.166Z,591.2
2023-04-03T02:38:13.014Z,591.6
2023-04-03T02:39:14.867Z,591.6
2023-04-03T02:40:16.813Z,591.4
2023-04-03T02:41:18.661Z,591.7
2023-04-03T02:42:20.520Z,591.4
2023-04-03T02:43:22.462Z,591.3
2023-04-03T02:44:24.350Z,591.5
2023-04-03T02:45:26.178Z,591.5
2023-04-03T02:46:28.148Z,591.5
2023-04-03T02:47:30.096Z,591.6
2023-04-03T02:48:32.027Z,591.9
2023-04-03T02:49:33.879Z,591.7
2023-04-03T02:50:36.999Z,592
2023-04-03T02:51:38.942Z,592.2
2023-04-03T02:52:40.830Z,592.4
2023-04-03T02:53:42.811Z,592.7
2023-04-03T02:54:44.760Z,592.7
2023-04-03T02:55:46.622Z,592.9
2023-04-03T02:56:48.472Z,593.4
2023-04-03T02:57:50.413Z,593.2
2023-04-03T02:58:52.377Z,593.1
2023-04-03T02:59:54.259Z,592.9
2023-04-03T03:00:56.270Z,593.2
2023-04-03T03:01:58.347Z,593.1
2023-04-03T03:03:00.406Z,593
2023-04-03T03:04:02.231Z,593.5
2023-04-03T03:05:04.226Z,593.5
2023-04-03T03:06:06.272Z,593.6
2023-04-03T03:07:08.093Z,593.6
2023-04-03T03:08:10.051Z,593.5
2023-04-03T03:09:11.996Z,593.8
2023-04-03T03:10:13.852Z,594.2
2023-04-03T03:11:21.229Z,594.2
2023-04-03T03:12:23.304Z,594.1
2023-04-03T03:13:25.231Z,594.3
2023-04-03T03:14:27.193Z,594.6
2023-04-03T03:15:29.069Z,594.6
2023-04-03T03:16:31.327Z,594.2
2023-04-03T03:17:33.407Z,594.3
2023-04-03T03:18:35.314Z,594.3
2023-04-03T03:19:37.157Z,594.2
2023-04-03T03:20:39.421Z,594.2
2023-04-03T03:21:41.358Z,594.1
2023-04-03T03:22:43.221Z,594
2023-04-03T03:23:44.966Z,593.7
2023-04-03T03:24:46.832Z,593.8
2023-04-03T03:25:48.565Z,593.8
2023-04-03T03:26:50.505Z,593.9
2023-04-03T03:27:52.466Z,594.3
2023-04-03T03:28:54.314Z,593.8
2023-04-03T03:29:56.168Z,594.2
2023-04-03T03:30:58.763Z,594.1
2023-04-03T03:32:00.802Z,594.6
2023-04-03T03:33:02.674Z,594.8
2023-04-03T03:34:04.515Z,594.7
2023-04-03T03:35:06.331Z,594.7
2023-04-03T03:36:08.608Z,594.6
2023-04-03T03:37:10.336Z,594.5
2023-04-03T03:38:12.189Z,594.3
2023-04-03T03:39:14.140Z,593.8
2023-04-03T03:40:18.662Z,593.9
2023-04-03T03:41:20.507Z,593.8
2023-04-03T03:42:22.364Z,594
2023-04-03T03:43:24.316Z,594.1
2023-04-03T03:44:26.081Z,594.2
2023-04-03T03:45:27.797Z,594.2
2023-04-03T03:46:30.029Z,594.2
2023-04-03T03:47:32.264Z,593.9
2023-04-03T03:48:34.072Z,594.2
2023-04-03T03:49:35.924Z,593.8
2023-04-03T03:50:37.875Z,593.7
2023-04-03T03:51:39.820Z,593.7
2023-04-03T03:52:41.673Z,593.8
2023-04-03T03:53:43.527Z,594.1
2023-04-03T03:54:45.470Z,594.2
2023-04-03T03:55:47.639Z,593.9
2023-04-03T03:56:49.647Z,593.7
2023-04-03T03:57:51.691Z,593.5
2023-04-03T03:58:53.608Z,593.8
2023-04-03T03:59:55.387Z,593.5
2023-04-03T04:00:57.303Z,593.1
2023-04-03T04:01:59.355Z,593.4
2023-04-03T04:03:01.573Z,593.2
2023-04-03T04:04:03.578Z,593.2
2023-04-03T04:05:05.509Z,593.3
2023-04-03T04:06:07.362Z,593.6
2023-04-03T04:07:09.220Z,594.1
2023-04-03T04:08:11.168Z,593.9
2023-04-03T04:09:13.026Z,594
2023-04-03T04:10:14.979Z,594.3
2023-04-03T04:11:17.031Z,594.1
2023-04-03T04:12:18.768Z,594.1
2023-04-03T04:13:20.623Z,593.6
2023-04-03T04:14:22.485Z,593.4
2023-04-03T04:15:24.417Z,593.5
2023-04-03T04:16:26.371Z,593.2
2023-04-03T04:17:28.565Z,593.3
2023-04-03T04:18:30.494Z,593.1
2023-04-03T04:19:32.552Z,593
2023-04-03T04:20:34.408Z,593.1
2023-04-03T04:21:36.448Z,593
2023-04-03T04:22:38.194Z,592.6
2023-04-03T04:23:40.050Z,592.9
2023-04-03T04:24:41.894Z,592.6
2023-04-03T04:25:43.749Z,592.5
2023-04-03T04:26:45.599Z,592.1
2023-04-03T04:27:47.448Z,592.3
2023-04-03T04:28:49.190Z,592.6
2023-04-03T04:29:50.941Z,592.5
2023-04-03T04:30:52.933Z,592.4
2023-04-03T04:31:54.854Z,592.4
2023-04-03T04:32:57.096Z,592.4
2023-04-03T04:33:59.050Z,592.4
2023-04-03T04:35:01.061Z,592.2
2023-04-03T04:36:03.235Z,592.3
2023-04-03T04:37:05.615Z,592.4
2023-04-03T04:38:07.587Z,592.5
2023-04-03T04:39:09.536Z,592.5
2023-04-03T04:40:11.379Z,592
2023-04-03T04:41:13.139Z,592.1
2023-04-03T04:42:18.365Z,592.2
2023-04-03T04:43:20.219Z,592.6
2023-04-03T04:44:22.167Z,592.1
2023-04-03T04:45:24.014Z,592.2
2023-04-03T04:46:26.101Z,592.2
2023-04-03T04:47:28.038Z,591.6
2023-04-03T04:48:33.357Z,591.7
2023-04-03T04:49:35.309Z,591.6
2023-04-03T04:50:37.159Z,591.3
2023-04-03T04:51:52.932Z,591.2
2023-04-03T04:52:54.799Z,591.1
2023-04-03T04:53:56.913Z,590.7
2023-04-03T04:54:58.892Z,590.7
2023-04-03T04:56:00.749Z,590.6
2023-04-03T04:57:02.928Z,590.7
2023-04-03T04:58:04.744Z,590.6
2023-04-03T04:59:06.593Z,590
2023-04-03T05:00:08.450Z,589.8
2023-04-03T05:01:10.303Z,589.6
2023-04-03T05:02:12.145Z,589.5
2023-04-03T05:03:13.993Z,589.3
2023-04-03T05:04:16.251Z,589.3
2023-04-03T05:05:18.250Z,589.2
2023-04-03T05:06:20.172Z,589
2023-04-03T05:07:22.139Z,589.3
2023-04-03T05:08:23.962Z,588.7
2023-04-03T05:09:25.809Z,588.9
2023-04-03T05:10:27.764Z,588.3
2023-04-03T05:11:29.517Z,588.4
2023-04-03T05:12:31.476Z,587.8
2023-04-03T05:13:33.221Z,588
2023-04-03T05:14:35.163Z,587.9
2023-04-03T05:15:38.394Z,587.8
2023-04-03T05:16:40.506Z,588
2023-04-03T05:17:42.594Z,588.2
2023-04-03T05:18:44.517Z,588.6
2023-04-03T05:19:47.077Z,588.5
2023-04-03T05:20:49.139Z,588.5
2023-04-03T05:21:50.983Z,588.8
2023-04-03T05:22:52.844Z,588.7
2023-04-03T05:23:54.680Z,588.9
2023-04-03T05:24:56.633Z,588.9
2023-04-03T05:25:58.593Z,589.2
2023-04-03T05:27:00.336Z,589.3
2023-04-03T05:28:02.091Z,589.3
2023-04-03T05:29:03.795Z,589.1
2023-04-03T05:30:05.893Z,588.6
2023-04-03T05:31:08.060Z,588.6
2023-04-03T05:32:09.901Z,588.7
2023-04-03T05:33:11.916Z,588.4
2023-04-03T05:34:13.947Z,588.5
2023-04-03T05:35:16.197Z,589
2023-04-03T05:36:19.053Z,589.1
2023-04-03T05:37:21.200Z,589.5
2023-04-03T05:38:23.352Z,589.8
2023-04-03T05:39:25.407Z,590
2023-04-03T05:40:27.357Z,589.8
2023-04-03T05:41:29.221Z,589.5
2023-04-03T05:42:30.990Z,589.7
2023-04-03T05:43:32.833Z,589.4
2023-04-03T05:44:34.645Z,589.4
2023-04-03T05:45:36.637Z,589.1
2023-04-03T05:46:38.457Z,589
2023-04-03T05:47:40.533Z,589.7
2023-04-03T05:48:42.465Z,589.5
2023-04-03T05:49:44.117Z,589.2
2023-04-03T05:50:46.076Z,589.7
2023-04-03T05:51:47.808Z,589.4
2023-04-03T05:52:49.651Z,589.4
2023-04-03T05:53:51.446Z,589.9
2023-04-03T05:54:53.578Z,589.9
2023-04-03T05:55:55.720Z,590.1
2023-04-03T05:56:57.831Z,590.4
2023-04-03T05:57:59.668Z,590.2
2023-04-03T05:59:01.470Z,590.2
2023-04-03T06:00:03.321Z,590.4
2023-04-03T06:01:05.083Z,590
2023-04-03T06:02:07.024Z,590.5
2023-04-03T06:03:09.702Z,590.7
2023-04-03T06:04:12.127Z,590.6
2023-04-03T06:05:14.019Z,591
2023-04-03T06:06:15.897Z,591.3
2023-04-03T06:07:17.816Z,591.2
2023-04-03T06:08:19.586Z,591
2023-04-03T06:09:21.322Z,591
2023-04-03T06:10:23.150Z,590.8
2023-04-03T06:11:25.047Z,590.9
2023-04-03T06:12:26.850Z,590.8
2023-04-03T06:13:28.709Z,590.5
2023-04-03T06:14:30.493Z,590.8
2023-04-03T06:15:32.416Z,591
2023-04-03T06:16:36.837Z,590.8
2023-04-03T06:17:40.098Z,590.8
2023-04-03T06:18:42.107Z,590.8
2023-04-03T06:19:44.001Z,591
2023-04-03T06:20:45.968Z,591.3
2023-04-03T06:21:48.273Z,591.1
2023-04-03T06:22:50.233Z,591.1
2023-04-03T06:23:52.117Z,591
2023-04-03T06:24:54.079Z,590.8
2023-04-03T06:25:55.925Z,591
2023-04-03T06:26:57.781Z,590.8
2023-04-03T06:27:59.623Z,590.8
2023-04-03T06:29:01.477Z,590.1
2023-04-03T06:30:03.540Z,590.4
2023-04-03T06:31:05.706Z,590.6
2023-04-03T06:32:07.461Z,590.2
2023-04-03T06:33:09.369Z,590.2
2023-04-03T06:34:11.232Z,589.8
2023-04-03T06:35:13.107Z,589.5
2023-04-03T06:36:15.155Z,589.2
2023-04-03T06:37:17.019Z,589.1
2023-04-03T06:38:18.858Z,588.8
2023-04-03T06:39:21.029Z,588.8
2023-04-03T06:40:22.945Z,588.7
2023-04-03T06:41:24.697Z,588.8
2023-04-03T06:42:26.431Z,589
2023-04-03T06:43:28.290Z,589.3
2023-04-03T06:44:30.138Z,589.3
2023-04-03T06:45:32.091Z,589.4
2023-04-03T06:46:33.956Z,589.4
2023-04-03T06:47:35.932Z,589.5
2023-04-03T06:48:38.055Z,589.5
2023-04-03T06:49:39.930Z,589.3
2023-04-03T06:50:42.098Z,589.9
2023-04-03T06:51:43.836Z,590.1
2023-04-03T06:52:45.814Z,590
2023-04-03T06:53:47.619Z,589.9
2023-04-03T06:54:49.676Z,589.8
2023-04-03T06:55:51.516Z,589.8
2023-04-03T06:56:53.521Z,589.7
2023-04-03T06:57:55.519Z,589.9
2023-04-03T06:58:57.382Z,589.7
2023-04-03T06:59:59.243Z,589.2
2023-04-03T07:01:00.948Z,589.3
2023-04-03T07:02:03.253Z,589.1
2023-04-03T07:03:08.130Z,589.1
2023-04-03T07:04:10.448Z,589.4
2023-04-03T07:05:12.381Z,589.5
2023-04-03T07:06:14.439Z,589.7
2023-04-03T07:07:16.289Z,589.7
2023-04-03T07:08:18.266Z,590
2023-04-03T07:09:19.966Z,590
2023-04-03T07:10:21.723Z,589.9
2023-04-03T07:11:23.698Z,589.9
2023-04-03T07:12:25.727Z,590.1
2023-04-03T07:13:27.582Z,591
2023-04-03T07:14:29.445Z,591.3
2023-04-03T07:15:31.288Z,591.3
2023-04-03T07:16:33.562Z,591.3
2023-04-03T07:17:35.520Z,591.2
2023-04-03T07:18:37.275Z,591
2023-04-03T07:19:39.090Z,591.7
2023-04-03T07:20:41.051Z,591.7
2023-04-03T07:21:42.949Z,591.8
2023-04-03T07:22:44.846Z,592.3
2023-04-03T07:23:47.030Z,592
2023-04-03T07:24:49.101Z,591.8
2023-04-03T07:25:50.921Z,592
2023-04-03T07:26:52.864Z,591.7
2023-04-03T07:27:54.723Z,592
2023-04-03T07:28:56.628Z,592
2023-04-03T07:29:58.543Z,592.1
2023-04-03T07:31:00.360Z,591.6
2023-04-03T07:32:02.696Z,591.8
2023-04-03T07:33:04.796Z,591.4
2023-04-03T07:34:06.838Z,591.6
2023-04-03T07:35:08.908Z,592.4
2023-04-03T07:36:10.878Z,592.5
2023-04-03T07:37:12.806Z,592.6
2023-04-03T07:38:14.585Z,592.3
2023-04-03T07:39:16.522Z,592.4
2023-04-03T07:40:21.249Z,592.4
2023-04-03T07:41:22.965Z,592.5
2023-04-03T07:42:25.012Z,592.9
2023-04-03T07:43:26.866Z,593.4
2023-04-03T07:44:28.815Z,593.4
2023-04-03T07:45:30.841Z,593.3
2023-04-03T07:46:32.717Z,593.2
2023-04-03T07:47:34.594Z,593
2023-04-03T07:48:36.376Z,593.2
2023-04-03T07:49:38.186Z,592.7
2023-04-03T07:50:40.017Z,592.7
2023-04-03T07:51:41.770Z,592.5
2023-04-03T07:52:43.645Z,592.6
2023-04-03T07:53:45.578Z,592.4
2023-04-03T07:54:47.652Z,593
2023-04-03T07:55:49.575Z,593
2023-04-03T07:56:51.478Z,593.1
2023-04-03T07:57:53.385Z,593.1
2023-04-03T07:58:55.044Z,593.1
2023-04-03T07:59:56.893Z,592.9
2023-04-03T08:00:58.936Z,593
2023-04-03T08:02:00.802Z,593.1
2023-04-03T08:03:03.130Z,593.2
2023-04-03T08:04:05.595Z,593.2
2023-04-03T08:05:07.604Z,593
2023-04-03T08:06:23.817Z,592.9
2023-04-03T08:07:31.134Z,592.9
2023-04-03T08:08:33.084Z,592.8
2023-04-03T08:09:35.000Z,593.1
2023-04-03T08:10:37.027Z,592.6
2023-04-03T08:11:38.936Z,592.6
2023-04-03T08:12:40.795Z,592.7
2023-04-03T08:13:42.652Z,593.2
2023-04-03T08:14:44.492Z,593.2
2023-04-03T08:15:46.271Z,593.6
2023-04-03T08:16:48.442Z,594
2023-04-03T08:17:50.632Z,593.5
2023-04-03T08:18:52.531Z,593.7
2023-04-03T08:19:54.351Z,593.6
2023-04-03T08:20:56.209Z,593.5
2023-04-03T08:21:58.170Z,593.4
2023-04-03T08:22:59.962Z,593.5
2023-04-03T08:24:01.963Z,594
2023-04-03T08:25:03.853Z,594.2
2023-04-03T08:26:05.707Z,594.6
2023-04-03T08:27:07.508Z,594.7
2023-04-03T08:28:09.480Z,594.9
2023-04-03T08:29:11.515Z,594.7
2023-04-03T08:30:13.504Z,595
2023-04-03T08:31:15.563Z,594.9
2023-04-03T08:32:17.478Z,595.4
2023-04-03T08:33:19.328Z,595.3
2023-04-03T08:34:21.300Z,595.2
2023-04-03T08:35:23.132Z,594.8
2023-04-03T08:36:25.109Z,594.9
2023-04-03T08:37:26.933Z,594.6
2023-04-03T08:38:28.794Z,594.6
2023-04-03T08:39:30.644Z,595
2023-04-03T08:40:32.704Z,594.9
2023-04-03T08:41:34.996Z,595
2023-04-03T08:42:37.155Z,595.4
2023-04-03T08:43:38.997Z,596
2023-04-03T08:44:41.838Z,595.9
2023-04-03T08:45:43.683Z,596.4
2023-04-03T08:46:45.438Z,596.1
2023-04-03T08:47:47.503Z,596.4
2023-04-03T08:48:49.443Z,596.7
2023-04-03T08:49:51.614Z,596.6
2023-04-03T08:50:53.858Z,596.6
2023-04-03T08:51:55.616Z,596.7
2023-04-03T08:52:57.341Z,596.7
2023-04-03T08:53:59.221Z,597
2023-04-03T08:55:01.023Z,597.1
2023-04-03T08:56:02.906Z,597.2
2023-04-03T08:57:05.190Z,596.9
2023-04-03T08:58:07.207Z,597.4
2023-04-03T08:59:09.151Z,597.5
2023-04-03T09:00:10.919Z,597.2
2023-04-03T09:01:12.971Z,598
2023-04-03T09:02:14.720Z,597.7
2023-04-03T09:03:17.137Z,597.8
2023-04-03T09:04:19.793Z,597.7
2023-04-03T09:05:24.572Z,597.9
2023-04-03T09:06:26.351Z,597.8
2023-04-03T09:07:28.056Z,598.3
2023-04-03T09:08:30.040Z,598.4
2023-04-03T09:09:31.926Z,598.5
2023-04-03T09:10:33.809Z,599
2023-04-03T09:11:35.788Z,598.7
2023-04-03T09:12:37.940Z,599.5
2023-04-03T09:13:39.958Z,599.5
2023-04-03T09:14:41.737Z,599.6
2023-04-03T09:15:43.800Z,599.8
2023-04-03T09:16:45.688Z,599.7
2023-04-03T09:17:47.745Z,600
2023-04-03T09:18:49.845Z,599.7
2023-04-03T09:19:51.847Z,599.9
2023-04-03T09:20:53.947Z,600.2
2023-04-03T09:21:55.921Z,600
2023-04-03T09:22:57.814Z,600.4
2023-04-03T09:23:59.697Z,600.4
2023-04-03T09:25:01.566Z,600.9
2023-04-03T09:26:03.312Z,601
2023-04-03T09:27:05.233Z,600.6
2023-04-03T09:28:07.562Z,600.9
2023-04-03T09:29:09.609Z,600.7
2023-04-03T09:30:11.317Z,600.8
2023-04-03T09:31:13.228Z,600.5
2023-04-03T09:32:15.225Z,600.4
2023-04-03T09:33:17.302Z,600.8
2023-04-03T09:34:19.338Z,600.6
2023-04-03T09:35:49.107Z,600.7
2023-04-03T09:36:50.991Z,600.5
2023-04-03T09:37:52.845Z,600.6
2023-04-03T09:38:54.693Z,600.9
2023-04-03T09:39:56.763Z,600.7
2023-04-03T09:40:58.632Z,601.2
2023-04-03T09:42:00.401Z,601.1
2023-04-03T09:43:02.617Z,601.2
2023-04-03T09:44:04.787Z,601.4
2023-04-03T09:45:06.830Z,601.5
2023-04-03T09:46:08.677Z,601.4
2023-04-03T09:47:10.777Z,601.6
2023-04-03T09:48:17.539Z,601.3
2023-04-03T09:49:19.358Z,601.5
2023-04-03T09:50:21.506Z,601.8
2023-04-03T09:51:23.360Z,602.2
2023-04-03T09:52:25.219Z,602.6
2023-04-03T09:53:27.060Z,602.7
2023-04-03T09:54:29.114Z,602.8
2023-04-03T09:55:31.271Z,603.1
2023-04-03T09:56:33.376Z,602.6
2023-04-03T09:57:35.839Z,602.6
2023-04-03T09:58:51.684Z,602.5
2023-04-03T09:59:54.113Z,602.8
2023-04-03T10:00:56.190Z,603
2023-04-03T10:01:58.092Z,602.8
2023-04-03T10:03:00.461Z,603
2023-04-03T10:04:02.493Z,602.7
2023-04-03T10:05:10.590Z,602.8
2023-04-03T10:06:12.550Z,602.8
2023-04-03T10:07:14.484Z,603
2023-04-03T10:08:16.659Z,603.1
2023-04-03T10:09:18.608Z,603
2023-04-03T10:10:20.672Z,603.3
2023-04-03T10:11:22.411Z,603.1
2023-04-03T10:12:24.379Z,602.7
2023-04-03T10:13:26.309Z,602.6
2023-04-03T10:14:28.277Z,602.8
2023-04-03T10:15:30.633Z,602.7
2023-04-03T10:16:32.970Z,603.1
2023-04-03T10:17:35.250Z,603
2023-04-03T10:18:37.298Z,603.1
2023-04-03T10:19:39.370Z,603.5
2023-04-03T10:20:42.143Z,603.5
2023-04-03T10:21:44.163Z,603.7
2023-04-03T10:22:46.083Z,603.9
2023-04-03T10:23:47.977Z,603.9
2023-04-03T10:24:49.913Z,603.7
2023-04-03T10:25:51.877Z,604.2
2023-04-03T10:26:53.827Z,604.2
2023-04-03T10:27:55.677Z,604.3
2023-04-03T10:28:57.686Z,604.4
2023-04-03T10:29:59.578Z,604.4
2023-04-03T10:31:02.013Z,604.3
2023-04-03T10:32:03.986Z,604.3
2023-04-03T10:33:06.172Z,604.5
2023-04-03T10:34:08.094Z,604.3
2023-04-03T10:35:09.934Z,604.6
2023-04-03T10:36:11.918Z,604.9
2023-04-03T10:37:13.756Z,605
2023-04-03T10:38:15.480Z,605.2
2023-04-03T10:39:17.331Z,605.4
2023-04-03T10:40:19.188Z,605.7
2023-04-03T10:41:21.160Z,605.5
2023-04-03T10:42:23.497Z,606
2023-04-03T10:43:25.445Z,606.1
2023-04-03T10:44:27.308Z,606.8
2023-04-03T10:45:29.161Z,606.6
2023-04-03T10:46:31.900Z,606.5
2023-04-03T10:47:39.831Z,606.5
2023-04-03T10:48:41.666Z,606.5
2023-04-03T10:50:00.530Z,606.7
2023-04-03T10:51:02.373Z,606.7
2023-04-03T10:52:04.336Z,606.3
2023-04-03T10:53:06.169Z,606
2023-04-03T10:54:08.086Z,605.9
2023-04-03T10:55:09.926Z,606
2023-04-03T10:56:11.845Z,605.8
2023-04-03T10:57:15.011Z,606
2023-04-03T10:58:16.858Z,606.1
2023-04-03T10:59:18.748Z,605.7
2023-04-03T11:00:20.571Z,605.9
2023-04-03T11:01:22.629Z,606
2023-04-03T11:02:25.238Z,605.8
2023-04-03T11:03:27.736Z,605.9
2023-04-03T11:04:29.646Z,605.7
2023-04-03T11:05:31.555Z,605.9
2023-04-03T11:06:33.392Z,605.6
2023-04-03T11:07:35.244Z,605.6
2023-04-03T11:08:37.230Z,605
2023-04-03T11:09:39.274Z,605.1
2023-04-03T11:10:41.170Z,604.9
2023-04-03T11:11:43.079Z,604.9
2023-04-03T11:12:48.398Z,604.7
2023-04-03T11:13:50.266Z,604.4
2023-04-03T11:14:52.166Z,604.5
2023-04-03T11:15:54.162Z,604.2
2023-04-03T11:16:56.324Z,604.5
2023-04-03T11:17:58.847Z,604.7
2023-04-03T11:19:00.869Z,605.1
2023-04-03T11:20:02.983Z,605.3
2023-04-03T11:21:04.875Z,605.3
2023-04-03T11:22:06.686Z,605.5
2023-04-03T11:23:08.465Z,605.5
2023-04-03T11:24:10.303Z,605.7
2023-04-03T11:25:12.275Z,605.6
2023-04-03T11:26:14.217Z,605.4
2023-04-03T11:27:15.952Z,605.2
2023-04-03T11:28:17.780Z,605.1
2023-04-03T11:29:36.450Z,604.9
2023-04-03T11:30:38.212Z,604.7
2023-04-03T11:31:40.399Z,604.6
2023-04-03T11:32:42.323Z,604.3
2023-04-03T11:33:44.577Z,604.9
2023-04-03T11:34:46.508Z,604.8
2023-04-03T11:35:48.492Z,605.2
2023-04-03T11:36:51.025Z,605.3
2023-04-03T11:37:53.276Z,605.3
2023-04-03T11:38:56.369Z,605.4
2023-04-03T11:39:58.143Z,605.4
2023-04-03T11:40:59.954Z,604.9
2023-04-03T11:42:13.907Z,605.1
2023-04-03T11:43:15.745Z,605
2023-04-03T11:44:17.689Z,605.1
2023-04-03T11:45:19.640Z,605.1
2023-04-03T11:46:21.717Z,604.8
2023-04-03T11:47:23.824Z,604.9
2023-04-03T11:48:26.214Z,604.7
2023-04-03T11:49:28.399Z,604.8
2023-04-03T11:50:30.487Z,604.6
2023-04-03T11:51:32.378Z,604.5
2023-04-03T11:52:34.127Z,604.7
2023-04-03T11:53:36.092Z,604.7
2023-04-03T11:54:46.236Z,605.1
2023-04-03T11:55:48.020Z,604.8
2023-04-03T11:56:49.833Z,604.8
2023-04-03T11:57:51.611Z,604.5
2023-04-03T11:58:53.621Z,604.6
2023-04-03T11:59:55.475Z,604.5
2023-04-03T12:00:57.842Z,604.2
2023-04-03T12:02:00.169Z,604.4
2023-04-03T12:03:03.125Z,604.2
2023-04-03T12:04:05.564Z,604.5
2023-04-03T12:05:07.920Z,604.3
2023-04-03T12:06:09.837Z,604.4
2023-04-03T12:07:11.714Z,604
2023-04-03T12:08:13.451Z,604.2
2023-04-03T12:09:15.399Z,604.1
2023-04-03T12:10:33.237Z,604.2
2023-04-03T12:11:35.089Z,604.1
2023-04-03T12:12:37.140Z,603.9
2023-04-03T12:13:39.021Z,604
2023-04-03T12:14:40.822Z,604.3
2023-04-03T12:15:42.634Z,604.2
2023-04-03T12:16:44.873Z,604.2
2023-04-03T12:17:47.034Z,604.3
2023-04-03T12:18:48.949Z,604.4
2023-04-03T12:19:50.891Z,604.8
2023-04-03T12:20:53.080Z,605
2023-04-03T12:21:54.995Z,605.1
2023-04-03T12:22:56.863Z,605.3
2023-04-03T12:23:58.716Z,605.1
2023-04-03T12:25:00.651Z,605.2
2023-04-03T12:26:02.510Z,605.2
2023-04-03T12:27:04.569Z,605.5
2023-04-03T12:28:06.409Z,605.5
2023-04-03T12:29:08.372Z,605.4
2023-04-03T12:30:10.492Z,605.2
2023-04-03T12:31:12.623Z,605.2
2023-04-03T12:32:14.503Z,605.3
2023-04-03T12:33:16.640Z,605.9
2023-04-03T12:34:18.749Z,606.1
2023-04-03T12:35:20.553Z,606.4
2023-04-03T12:36:23.419Z,606.7
2023-04-03T12:37:25.420Z,606.6
2023-04-03T12:38:27.253Z,606.7
2023-04-03T12:39:29.118Z,607
2023-04-03T12:40:30.987Z,607.3
2023-04-03T12:41:32.780Z,607.6
2023-04-03T12:42:34.787Z,608
2023-04-03T12:43:36.733Z,608
2023-04-03T12:44:38.700Z,608.3
2023-04-03T12:45:41.709Z,608.3
2023-04-03T12:46:43.987Z,608.5
2023-04-03T12:47:46.393Z,609
2023-04-03T12:48:48.237Z,608.9
2023-04-03T12:49:53.316Z,609.2
2023-04-03T12:50:55.329Z,609.3
2023-04-03T12:51:57.710Z,609.4
2023-04-03T12:52:59.744Z,609.4
2023-04-03T12:54:01.682Z,609.4
2023-04-03T12:55:03.656Z,609.1
2023-04-03T12:56:05.596Z,609.2
2023-04-03T12:57:07.575Z,609.5
2023-04-03T12:58:09.288Z,609.9
2023-04-03T12:59:11.264Z,609.3
2023-04-03T13:00:13.092Z,609.8
2023-04-03T13:01:15.366Z,609.8
2023-04-03T13:02:17.436Z,609.7
2023-04-03T13:03:19.732Z,609.7
2023-04-03T13:04:21.724Z,609.6
2023-04-03T13:05:23.579Z,608.9
2023-04-03T13:06:25.332Z,609
2023-04-03T13:07:27.403Z,608.8
2023-04-03T13:08:29.239Z,608.6
2023-04-03T13:09:31.083Z,608.5
2023-04-03T13:10:32.825Z,608.6
2023-04-03T13:11:34.778Z,608.5
2023-04-03T13:12:36.597Z,608.5
2023-04-03T13:13:38.483Z,609
2023-04-03T13:14:40.433Z,608.8
2023-04-03T13:15:42.291Z,608.9
2023-04-03T13:16:44.144Z,609.1
2023-04-03T13:17:46.214Z,609.2
2023-04-03T13:18:48.141Z,609.1
2023-04-03T13:19:50.503Z,608.9
2023-04-03T13:20:52.375Z,609.3
2023-04-03T13:21:54.233Z,609.2
2023-04-03T13:22:56.648Z,609.7
2023-04-03T13:24:16.352Z,609.7
2023-04-03T13:25:18.291Z,609.8
2023-04-03T13:26:22.952Z,609.8